createdAt,value
2018-12-12T00:02:44.166Z,7.90
2018-12-12T00:05:20.995Z,13.30
2018-12-12T00:07:55.023Z,14.13
2018-12-12T00:10:35.883Z,8.50
2018-12-12T00:13:15.577Z,8.50
2018-12-12T00:15:50.539Z,8.13
2018-12-12T00:23:34.502Z,8.07
2018-12-12T00:26:06.837Z,7.67
2018-12-12T00:28:47.017Z,8.30
2018-12-12T00:31:19.201Z,18.00
2018-12-12T00:33:50.588Z,12.40
2018-12-12T00:36:22.661Z,8.83
2018-12-12T00:38:56.451Z,9.37
2018-12-12T00:41:27.955Z,8.23
2018-12-12T00:44:05.686Z,9.17
2018-12-12T00:46:38.807Z,8.20
2018-12-12T00:49:19.041Z,8.20
2018-12-12T00:52:04.882Z,8.35
2018-12-12T00:54:37.626Z,7.53
2018-12-12T00:57:16.596Z,9.60
2018-12-12T01:00:03.471Z,8.77
2018-12-12T01:02:40.981Z,8.77
2018-12-12T01:05:16.660Z,10.37
2018-12-12T01:07:56.042Z,9.50
2018-12-12T01:10:30.307Z,9.30
2018-12-12T01:13:10.506Z,8.77
2018-12-12T01:15:43.382Z,8.80
2018-12-12T01:18:18.250Z,9.57
2018-12-12T01:20:52.230Z,9.80
2018-12-12T01:23:27.835Z,9.30
2018-12-12T01:26:01.412Z,9.43
2018-12-12T01:28:38.356Z,10.00
2018-12-12T01:31:15.775Z,10.10
2018-12-12T01:33:52.305Z,9.10
2018-12-12T01:36:25.477Z,10.70
2018-12-12T01:38:59.896Z,10.27
2018-12-12T01:41:35.417Z,9.07
2018-12-12T01:44:15.935Z,9.00
2018-12-12T01:47:00.495Z,9.40
2018-12-12T01:49:36.323Z,8.73
2018-12-12T01:52:09.046Z,9.20
2018-12-12T01:54:42.041Z,9.00
2018-12-12T01:57:14.571Z,9.33
2018-12-12T01:59:51.944Z,9.60
2018-12-12T02:02:32.629Z,10.37
2018-12-12T02:05:07.066Z,11.00
2018-12-12T02:07:39.622Z,10.73
2018-12-12T02:10:13.388Z,11.20
2018-12-12T02:12:49.912Z,11.60
2018-12-12T02:15:22.075Z,11.77
2018-12-12T02:17:53.871Z,9.73
2018-12-12T02:20:26.509Z,10.97
2018-12-12T02:23:03.269Z,11.57
2018-12-12T02:25:35.679Z,12.70
2018-12-12T02:28:09.453Z,11.70
2018-12-12T02:30:42.904Z,11.87
2018-12-12T02:33:16.984Z,11.40
2018-12-12T02:35:52.131Z,10.93
2018-12-12T02:38:29.065Z,13.10
2018-12-12T02:41:00.353Z,11.40
2018-12-12T02:43:33.465Z,11.57
2018-12-12T02:46:16.452Z,12.43
2018-12-12T02:48:48.806Z,11.47
2018-12-12T02:51:24.266Z,9.80
2018-12-12T02:53:54.615Z,10.53
2018-12-12T02:56:26.978Z,9.80
2018-12-12T02:59:03.745Z,11.13
2018-12-12T03:01:37.404Z,10.83
2018-12-12T03:04:13.730Z,10.80
2018-12-12T03:06:46.813Z,11.00
2018-12-12T03:09:20.805Z,10.30
2018-12-12T03:11:53.205Z,11.30
2018-12-12T03:14:26.836Z,10.13
2018-12-12T03:17:00.240Z,9.50
2018-12-12T03:19:37.928Z,9.43
2018-12-12T03:22:10.251Z,9.80
2018-12-12T03:24:42.928Z,10.97
2018-12-12T03:27:16.255Z,12.37
2018-12-12T03:29:47.795Z,11.90
2018-12-12T03:32:20.893Z,10.60
2018-12-12T03:34:57.739Z,12.20
2018-12-12T03:37:31.085Z,11.13
2018-12-12T03:40:04.016Z,12.03
2018-12-12T03:42:36.525Z,11.10
2018-12-12T03:45:08.007Z,12.70
2018-12-12T03:47:40.233Z,11.93
2018-12-12T03:50:13.629Z,11.63
2018-12-12T03:52:54.419Z,13.07
2018-12-12T03:55:26.854Z,15.32
2018-12-12T03:58:00.697Z,12.93
2018-12-12T04:00:31.968Z,14.47
2018-12-12T04:03:06.466Z,11.90
2018-12-12T04:05:45.246Z,12.40
2018-12-12T04:08:19.383Z,13.03
2018-12-12T04:10:52.244Z,14.10
2018-12-12T04:13:26.466Z,13.80
2018-12-12T04:15:59.094Z,12.27
2018-12-12T04:21:27.110Z,13.27
2018-12-12T04:24:07.386Z,13.07
2018-12-12T04:26:40.501Z,13.40
2018-12-12T04:29:15.259Z,12.40
2018-12-12T04:31:51.954Z,13.73
2018-12-12T04:34:24.633Z,13.10
2018-12-12T04:37:03.602Z,14.10
2018-12-12T04:39:36.515Z,37.60
2018-12-12T04:42:09.027Z,15.80
2018-12-12T04:44:43.715Z,14.05
2018-12-12T04:47:19.972Z,15.07
2018-12-12T04:49:55.346Z,12.67
2018-12-12T04:52:27.306Z,13.90
2018-12-12T04:55:00.388Z,12.60
2018-12-12T04:57:32.869Z,14.27
2018-12-12T05:00:09.674Z,17.07
2018-12-12T05:02:43.036Z,15.53
2018-12-12T05:05:20.411Z,14.40
2018-12-12T05:07:54.362Z,13.70
2018-12-12T05:10:35.584Z,15.03
2018-12-12T05:13:13.976Z,14.13
2018-12-12T05:15:49.665Z,15.60
2018-12-12T05:18:24.782Z,15.33
2018-12-12T05:21:01.997Z,13.63
2018-12-12T05:23:38.692Z,13.37
2018-12-12T05:26:37.360Z,13.77
2018-12-12T05:29:16.058Z,13.73
2018-12-12T05:31:51.446Z,15.40
2018-12-12T05:34:39.613Z,15.20
2018-12-12T05:37:24.732Z,14.43
2018-12-12T05:40:15.613Z,14.63
2018-12-12T05:43:11.954Z,13.30
2018-12-12T05:48:27.520Z,14.05
2018-12-12T05:51:08.254Z,13.30
2018-12-12T05:53:48.332Z,14.13
2018-12-12T05:56:31.471Z,15.00
2018-12-12T05:59:10.008Z,13.70
2018-12-12T06:01:45.023Z,15.53
2018-12-12T06:04:25.892Z,14.27
2018-12-12T06:07:03.325Z,13.53
2018-12-12T06:09:44.113Z,15.20
2018-12-12T06:15:33.744Z,13.27
2018-12-12T06:18:40.568Z,14.37
2018-12-12T06:21:21.874Z,15.57
2018-12-12T06:24:12.389Z,14.60
2018-12-12T06:26:59.630Z,14.40
2018-12-12T06:29:59.313Z,16.00
2018-12-12T06:32:56.330Z,15.87
2018-12-12T06:35:41.204Z,15.53
2018-12-12T06:41:49.460Z,20.10
2018-12-12T06:48:29.883Z,15.93
2018-12-12T06:58:27.752Z,17.43
2018-12-12T07:07:34.330Z,18.73
2018-12-12T07:28:21.101Z,17.47
2018-12-12T07:31:31.693Z,17.62
2018-12-12T07:34:25.563Z,16.70
2018-12-12T07:44:14.108Z,16.10
2018-12-12T08:01:51.733Z,15.37
2018-12-12T08:11:22.449Z,14.27
2018-12-12T08:14:15.967Z,15.07
2018-12-12T08:24:03.781Z,15.60
2018-12-12T08:40:47.570Z,17.57
2018-12-12T08:47:10.651Z,15.70
2018-12-12T08:53:25.835Z,15.20
2018-12-12T09:13:38.606Z,15.10
2018-12-12T09:34:32.171Z,13.37
2018-12-12T09:38:00.900Z,14.60
2018-12-12T10:16:45.641Z,12.03
2018-12-12T10:23:21.911Z,12.97
2018-12-12T10:29:03.036Z,13.63
2018-12-12T10:32:21.494Z,13.23
2018-12-12T10:35:50.029Z,14.40
2018-12-12T10:38:57.765Z,14.20
2018-12-12T10:49:24.970Z,14.10
2018-12-12T11:10:31.479Z,14.67
2018-12-12T11:25:09.936Z,15.50
2018-12-12T12:02:49.794Z,13.50
2018-12-12T12:05:38.737Z,12.60
2018-12-12T12:08:22.440Z,11.47
2018-12-12T12:11:22.602Z,13.47
2018-12-12T12:22:20.153Z,12.47
2018-12-12T12:25:40.694Z,15.03
2018-12-12T12:31:38.252Z,14.70
2018-12-12T12:34:41.499Z,13.70
2018-12-12T12:37:35.701Z,12.50
2018-12-12T12:40:49.558Z,12.70
2018-12-12T12:43:40.571Z,14.17
2018-12-12T12:46:24.131Z,14.40
2018-12-12T13:06:10.101Z,11.33
2018-12-12T13:12:13.471Z,11.13
2018-12-12T13:18:19.003Z,11.30
2018-12-12T13:21:07.139Z,9.63
2018-12-12T13:24:09.567Z,9.60
2018-12-12T13:27:09.677Z,10.03
2018-12-12T13:30:27.903Z,10.00
2018-12-12T13:33:27.321Z,10.43
2018-12-12T13:36:20.787Z,10.03
2018-12-12T13:39:09.773Z,10.90
2018-12-12T13:41:55.985Z,12.10
2018-12-12T13:44:48.607Z,15.13
2018-12-12T13:47:39.207Z,15.67
2018-12-12T13:50:26.276Z,15.50
2018-12-12T13:53:14.201Z,16.03
2018-12-12T13:55:58.100Z,19.67
2018-12-12T13:58:46.650Z,17.40
2018-12-12T14:01:37.564Z,18.93
2018-12-12T14:04:30.624Z,19.20
2018-12-12T14:07:40.816Z,21.20
2018-12-12T14:16:24.388Z,18.30
2018-12-12T14:19:32.672Z,16.70
2018-12-12T14:22:16.427Z,16.63
2018-12-12T14:25:48.582Z,17.80
2018-12-12T14:40:00.328Z,14.53
2018-12-12T14:43:16.623Z,16.63
2018-12-12T15:00:12.791Z,15.10
2018-12-12T15:13:01.838Z,17.35
2018-12-12T15:19:07.611Z,19.13
2018-12-12T15:25:15.162Z,19.47
2018-12-12T15:28:15.362Z,19.13
2018-12-12T15:31:11.741Z,19.43
2018-12-12T15:34:42.882Z,21.00
2018-12-12T16:04:27.293Z,15.07
2018-12-12T16:08:02.794Z,15.07
2018-12-12T16:11:31.485Z,14.20
2018-12-12T17:30:38.228Z,16.70
2018-12-12T18:05:35.413Z,17.03
2018-12-12T18:08:43.614Z,18.50
2018-12-12T18:11:43.886Z,16.17
2018-12-12T18:17:31.746Z,19.27
2018-12-12T18:20:30.333Z,17.07
2018-12-12T18:23:45.782Z,17.33
2018-12-12T18:35:21.853Z,18.25
2018-12-12T18:46:15.376Z,20.00
2018-12-12T18:51:52.384Z,17.20
2018-12-12T18:54:37.194Z,18.63
2018-12-12T18:57:22.091Z,18.83
2018-12-12T19:06:21.713Z,22.73
2018-12-12T19:09:13.789Z,20.70
2018-12-12T19:35:01.870Z,21.17
2018-12-12T19:48:12.159Z,20.00
2018-12-12T19:51:22.973Z,19.50
2018-12-12T19:55:21.103Z,20.20
2018-12-12T19:58:18.692Z,20.50
2018-12-12T20:12:53.643Z,19.77
2018-12-12T22:35:58.723Z,15.57
2018-12-12T22:39:00.371Z,18.33
2018-12-12T22:41:42.861Z,16.87
2018-12-12T22:44:49.363Z,15.80
2018-12-12T22:48:01.403Z,16.30
2018-12-12T22:50:49.814Z,16.20
2018-12-12T22:56:43.624Z,17.50
2018-12-12T22:59:58.014Z,17.63
2018-12-12T23:02:40.804Z,16.60
2018-12-12T23:05:41.124Z,16.80
2018-12-12T23:08:41.406Z,17.07
2018-12-12T23:14:20.090Z,17.73
2018-12-12T23:16:59.067Z,17.77
2018-12-12T23:20:00.388Z,18.27
2018-12-12T23:22:41.985Z,19.73
2018-12-12T23:25:19.883Z,19.43
2018-12-12T23:32:25.853Z,18.53
2018-12-12T23:35:12.831Z,16.97
2018-12-12T23:40:52.191Z,18.87
2018-12-12T23:43:33.782Z,18.33
2018-12-12T23:46:21.467Z,16.57
2018-12-12T23:52:17.268Z,16.30
2018-12-12T23:58:09.514Z,16.53
